createdAt,value
2017-01-17T00:00:24.835Z,27.42
2017-01-17T00:01:05.421Z,27.53
2017-01-17T00:01:46.011Z,27.34
2017-01-17T00:02:26.593Z,27.34
2017-01-17T00:03:07.184Z,27.44
2017-01-17T00:03:47.773Z,27.44
2017-01-17T00:04:28.359Z,27.44
2017-01-17T00:05:08.951Z,27.53
2017-01-17T00:05:49.539Z,27.34
2017-01-17T00:06:30.119Z,27.44
2017-01-17T00:07:10.702Z,27.44
2017-01-17T00:07:51.292Z,27.44
2017-01-17T00:08:31.870Z,27.34
2017-01-17T00:09:12.440Z,27.34
2017-01-17T00:09:53.058Z,27.44
2017-01-17T00:10:33.646Z,27.34
2017-01-17T00:11:14.231Z,27.53
2017-01-17T00:11:54.831Z,27.44
2017-01-17T00:12:35.418Z,27.44
2017-01-17T00:13:15.999Z,27.53
2017-01-17T00:13:56.587Z,27.44
2017-01-17T00:14:37.184Z,27.62
2017-01-17T00:15:17.773Z,27.44
2017-01-17T00:15:58.354Z,27.44
2017-01-17T00:16:38.943Z,27.42
2017-01-17T00:17:19.535Z,27.44
2017-01-17T00:18:00.131Z,27.44
2017-01-17T00:18:40.707Z,27.34
2017-01-17T00:19:21.286Z,27.42
2017-01-17T00:20:01.891Z,27.44
2017-01-17T00:20:42.487Z,27.34
2017-01-17T00:21:23.073Z,27.44
2017-01-17T00:22:03.652Z,27.34
2017-01-17T00:22:44.236Z,27.42
2017-01-17T00:23:24.823Z,27.33
2017-01-17T00:24:05.408Z,27.34
2017-01-17T00:24:45.982Z,27.42
2017-01-17T00:25:26.568Z,27.42
2017-01-17T00:26:07.155Z,27.42
2017-01-17T00:26:47.740Z,27.33
2017-01-17T00:27:28.323Z,27.44
2017-01-17T00:28:08.899Z,27.44
2017-01-17T00:28:49.490Z,27.42
2017-01-17T00:29:30.081Z,27.42
2017-01-17T00:30:10.672Z,27.34
2017-01-17T00:30:51.264Z,27.44
2017-01-17T00:31:31.842Z,27.42
2017-01-17T00:32:12.440Z,27.42
2017-01-17T00:32:53.034Z,27.42
2017-01-17T00:33:33.624Z,27.42
2017-01-17T00:34:14.206Z,27.42
2017-01-17T00:34:54.790Z,27.51
2017-01-17T00:35:35.385Z,27.33
2017-01-17T00:36:15.988Z,27.42
2017-01-17T00:36:56.580Z,27.42
2017-01-17T00:37:37.160Z,27.42
2017-01-17T00:38:17.748Z,27.34
2017-01-17T00:38:58.346Z,27.42
2017-01-17T00:39:38.939Z,27.44
2017-01-17T00:40:19.551Z,27.42
2017-01-17T00:41:00.153Z,27.42
2017-01-17T00:41:40.748Z,27.33
2017-01-17T00:42:21.340Z,27.44
2017-01-17T00:43:01.927Z,27.42
2017-01-17T00:43:42.515Z,27.42
2017-01-17T00:44:23.105Z,27.42
2017-01-17T00:45:03.720Z,27.42
2017-01-17T00:45:44.312Z,27.42
2017-01-17T00:46:24.903Z,27.42
2017-01-17T00:47:05.488Z,27.42
2017-01-17T00:47:46.090Z,27.42
2017-01-17T00:48:26.674Z,27.33
2017-01-17T00:49:07.270Z,27.42
2017-01-17T00:49:47.871Z,27.42
2017-01-17T00:50:28.454Z,27.42
2017-01-17T00:51:09.043Z,27.33
2017-01-17T00:51:49.638Z,27.42
2017-01-17T00:52:30.225Z,27.33
2017-01-17T00:53:10.836Z,27.42
2017-01-17T00:53:51.419Z,27.24
2017-01-17T00:54:31.991Z,27.44
2017-01-17T00:55:12.567Z,27.42
2017-01-17T00:55:53.147Z,27.23
2017-01-17T00:56:33.729Z,27.23
2017-01-17T00:57:14.343Z,27.23
2017-01-17T00:57:54.937Z,27.24
2017-01-17T00:58:35.549Z,27.23
2017-01-17T00:59:16.134Z,27.24
2017-01-17T00:59:56.748Z,27.24
2017-01-17T01:00:37.346Z,27.23
2017-01-17T01:01:17.932Z,27.34
2017-01-17T01:01:58.508Z,27.24
2017-01-17T01:02:39.099Z,27.24
2017-01-17T01:03:19.703Z,27.14
2017-01-17T01:04:00.276Z,27.24
2017-01-17T01:04:40.853Z,27.14
2017-01-17T01:05:21.440Z,27.23
2017-01-17T01:06:02.023Z,27.24
2017-01-17T01:06:42.616Z,27.33
2017-01-17T01:07:23.219Z,27.44
2017-01-17T01:08:03.804Z,27.33
2017-01-17T01:08:44.413Z,27.44
2017-01-17T01:09:25.010Z,27.33
2017-01-17T01:10:05.587Z,27.42
2017-01-17T01:10:46.171Z,27.51
2017-01-17T01:11:26.757Z,27.42
2017-01-17T01:12:07.345Z,27.53
2017-01-17T01:12:47.923Z,27.33
2017-01-17T01:13:28.514Z,27.24
2017-01-17T01:14:09.097Z,27.24
2017-01-17T01:14:49.673Z,27.23
2017-01-17T01:15:30.267Z,27.23
2017-01-17T01:16:10.852Z,27.23
2017-01-17T01:16:51.435Z,27.23
2017-01-17T01:17:32.025Z,27.51
2017-01-17T01:18:12.620Z,27.42
2017-01-17T01:18:53.220Z,27.42
2017-01-17T01:19:33.796Z,27.42
2017-01-17T01:20:14.382Z,27.33
2017-01-17T01:20:54.979Z,27.42
2017-01-17T01:21:35.594Z,27.33
2017-01-17T01:22:16.185Z,27.42
2017-01-17T01:22:56.770Z,27.42
2017-01-17T01:23:37.356Z,27.33
2017-01-17T01:24:17.946Z,27.33
2017-01-17T01:24:58.520Z,27.33
2017-01-17T01:25:39.096Z,27.51
2017-01-17T01:26:20.450Z,27.51
2017-01-17T01:27:01.049Z,27.51
2017-01-17T01:27:41.650Z,27.42
2017-01-17T01:28:22.226Z,27.33
2017-01-17T01:29:02.816Z,27.33
2017-01-17T01:29:43.407Z,27.23
2017-01-17T01:30:23.998Z,27.33
2017-01-17T01:31:04.581Z,27.42
2017-01-17T01:31:45.174Z,27.33
2017-01-17T01:32:25.774Z,27.42
2017-01-17T01:33:06.371Z,27.42
2017-01-17T01:33:46.970Z,27.42
2017-01-17T01:34:27.571Z,27.42
2017-01-17T01:35:08.156Z,27.23
2017-01-17T01:35:48.740Z,27.33
2017-01-17T01:36:29.321Z,27.33
2017-01-17T01:37:09.905Z,27.42
2017-01-17T01:37:50.487Z,27.42
2017-01-17T01:38:31.069Z,27.42
2017-01-17T01:39:11.649Z,27.42
2017-01-17T01:39:52.224Z,27.42
2017-01-17T01:40:32.817Z,27.33
2017-01-17T01:41:13.397Z,27.42
2017-01-17T01:41:54.000Z,27.42
2017-01-17T01:42:34.595Z,27.33
2017-01-17T01:43:15.167Z,27.42
2017-01-17T01:43:55.753Z,27.33
2017-01-17T01:44:36.348Z,27.23
2017-01-17T01:45:16.940Z,27.51
2017-01-17T01:45:57.526Z,27.33
2017-01-17T01:46:38.116Z,27.33
2017-01-17T01:47:18.696Z,27.33
2017-01-17T01:47:59.292Z,27.33
2017-01-17T01:48:39.879Z,27.42
2017-01-17T01:49:20.480Z,27.33
2017-01-17T01:50:01.063Z,27.42
2017-01-17T01:50:41.656Z,27.33
2017-01-17T01:51:22.261Z,27.42
2017-01-17T01:52:02.858Z,27.61
2017-01-17T01:52:43.437Z,27.23
2017-01-17T01:53:24.021Z,27.23
2017-01-17T01:54:04.611Z,27.13
2017-01-17T01:54:45.213Z,27.23
2017-01-17T01:55:25.798Z,27.33
2017-01-17T01:56:06.387Z,27.33
2017-01-17T01:56:46.980Z,27.13
2017-01-17T01:57:27.570Z,27.23
2017-01-17T01:58:08.184Z,27.13
2017-01-17T01:58:48.762Z,27.13
2017-01-17T01:59:29.347Z,27.23
2017-01-17T02:00:09.937Z,27.13
2017-01-17T02:00:50.516Z,27.13
2017-01-17T02:01:31.100Z,27.71
2017-01-17T02:02:11.688Z,27.13
2017-01-17T02:02:52.281Z,27.42
2017-01-17T02:03:32.870Z,27.81
2017-01-17T02:04:13.450Z,27.81
2017-01-17T02:04:54.026Z,27.81
2017-01-17T02:05:34.602Z,27.13
2017-01-17T02:06:15.186Z,27.13
2017-01-17T02:06:55.764Z,27.03
2017-01-17T02:07:36.344Z,27.23
2017-01-17T02:08:16.927Z,27.42
2017-01-17T02:08:57.518Z,27.42
2017-01-17T02:09:38.129Z,27.13
2017-01-17T02:10:18.718Z,27.42
2017-01-17T02:10:59.297Z,27.42
2017-01-17T02:11:39.883Z,27.51
2017-01-17T02:12:20.490Z,27.42
2017-01-17T02:13:01.091Z,27.51
2017-01-17T02:13:41.673Z,27.42
2017-01-17T02:14:22.273Z,27.81
2017-01-17T02:15:02.860Z,27.42
2017-01-17T02:15:43.452Z,27.71
2017-01-17T02:16:24.041Z,27.81
2017-01-17T02:17:04.617Z,27.81
2017-01-17T02:17:45.199Z,27.61
2017-01-17T02:18:25.775Z,27.42
2017-01-17T02:19:06.362Z,27.42
2017-01-17T02:19:46.954Z,27.61
2017-01-17T02:20:27.552Z,27.51
2017-01-17T02:21:08.125Z,27.71
2017-01-17T02:21:48.720Z,27.13
2017-01-17T02:22:29.301Z,27.13
2017-01-17T02:23:09.884Z,27.23
2017-01-17T02:23:50.472Z,27.13
2017-01-17T02:24:31.055Z,27.13
2017-01-17T02:25:11.629Z,27.13
2017-01-17T02:25:52.216Z,27.23
2017-01-17T02:26:32.814Z,27.13
2017-01-17T02:27:13.390Z,27.23
2017-01-17T02:27:53.980Z,27.33
2017-01-17T02:28:34.555Z,27.13
2017-01-17T02:29:15.137Z,27.23
2017-01-17T02:29:55.721Z,27.13
2017-01-17T02:30:36.299Z,27.23
2017-01-17T02:31:16.881Z,27.13
2017-01-17T02:31:57.473Z,27.42
2017-01-17T02:32:38.053Z,27.71
2017-01-17T02:33:18.630Z,27.42
2017-01-17T02:33:59.205Z,27.13
2017-01-17T02:34:39.794Z,27.13
2017-01-17T02:35:20.375Z,27.23
2017-01-17T02:36:00.959Z,27.13
2017-01-17T02:36:41.551Z,27.42
2017-01-17T02:37:22.127Z,27.13
2017-01-17T02:38:02.741Z,27.81
2017-01-17T02:38:43.329Z,27.51
2017-01-17T02:39:23.938Z,27.13
2017-01-17T02:40:04.526Z,27.42
2017-01-17T02:40:45.110Z,27.81
2017-01-17T02:41:25.701Z,27.81
2017-01-17T02:42:06.300Z,27.42
2017-01-17T02:42:46.912Z,27.42
2017-01-17T02:43:27.510Z,27.81
2017-01-17T02:44:08.093Z,27.42
2017-01-17T02:44:48.696Z,27.81
2017-01-17T02:45:29.295Z,27.42
2017-01-17T02:46:09.879Z,27.51
2017-01-17T02:46:50.468Z,27.71
2017-01-17T02:47:31.064Z,27.81
2017-01-17T02:48:11.648Z,27.42
2017-01-17T02:48:52.233Z,27.61
2017-01-17T02:49:32.823Z,27.81
2017-01-17T02:50:13.566Z,27.42
2017-01-17T02:50:54.145Z,27.61
2017-01-17T02:51:34.736Z,27.81
2017-01-17T02:52:15.322Z,27.81
2017-01-17T02:52:56.263Z,27.81
2017-01-17T02:53:36.857Z,27.91
2017-01-17T02:54:17.451Z,27.42
2017-01-17T02:54:58.034Z,27.51
2017-01-17T02:55:38.617Z,27.71
2017-01-17T02:56:19.198Z,27.91
2017-01-17T02:56:59.776Z,27.91
2017-01-17T02:57:40.354Z,27.71
2017-01-17T02:58:20.941Z,27.81
2017-01-17T02:59:01.524Z,27.81
2017-01-17T02:59:42.109Z,27.81
2017-01-17T03:00:22.692Z,27.51
2017-01-17T03:01:03.266Z,27.71
2017-01-17T03:01:43.853Z,27.61
2017-01-17T03:02:24.437Z,27.91
2017-01-17T03:03:05.021Z,27.91
2017-01-17T03:03:45.614Z,27.71
2017-01-17T03:04:26.211Z,27.71
2017-01-17T03:05:06.791Z,27.91
2017-01-17T03:05:47.393Z,27.91
2017-01-17T03:06:27.983Z,27.81
2017-01-17T03:07:08.594Z,27.91
2017-01-17T03:07:49.186Z,27.71
2017-01-17T03:08:29.771Z,28.19
2017-01-17T03:09:10.363Z,27.81
2017-01-17T03:09:50.979Z,27.71
2017-01-17T03:10:31.579Z,27.81
2017-01-17T03:11:12.160Z,27.61
2017-01-17T03:11:52.744Z,27.71
2017-01-17T03:12:33.325Z,27.91
2017-01-17T03:13:13.911Z,27.81
2017-01-17T03:13:54.494Z,27.81
2017-01-17T03:14:35.067Z,27.71
2017-01-17T03:15:15.648Z,27.81
2017-01-17T03:15:56.239Z,27.71
2017-01-17T03:16:36.828Z,27.81
2017-01-17T03:17:17.400Z,27.81
2017-01-17T03:17:57.968Z,27.81
2017-01-17T03:18:38.561Z,27.81
2017-01-17T03:19:19.149Z,27.71
2017-01-17T03:19:59.752Z,28
2017-01-17T03:20:40.340Z,27.51
2017-01-17T03:21:20.931Z,27.81
2017-01-17T03:22:01.536Z,27.91
2017-01-17T03:22:42.116Z,27.81
2017-01-17T03:23:22.705Z,27.71
2017-01-17T03:24:03.300Z,27.81
2017-01-17T03:24:43.884Z,27.81
2017-01-17T03:25:24.463Z,27.81
2017-01-17T03:26:05.051Z,27.91
2017-01-17T03:26:45.634Z,27.71
2017-01-17T03:27:26.221Z,27.61
2017-01-17T03:28:06.818Z,27.81
2017-01-17T03:28:47.411Z,27.81
2017-01-17T03:29:27.991Z,27.81
2017-01-17T03:30:08.574Z,27.71
2017-01-17T03:30:49.173Z,27.81
2017-01-17T03:31:29.762Z,27.71
2017-01-17T03:32:10.366Z,27.61
2017-01-17T03:32:50.943Z,27.71
2017-01-17T03:33:31.524Z,27.71
2017-01-17T03:34:12.105Z,27.71
2017-01-17T03:34:52.695Z,27.71
2017-01-17T03:35:33.285Z,27.81
2017-01-17T03:36:13.862Z,27.61
2017-01-17T03:36:54.446Z,27.81
2017-01-17T03:37:35.029Z,27.71
2017-01-17T03:38:15.625Z,27.71
2017-01-17T03:38:56.200Z,27.71
2017-01-17T03:39:36.796Z,27.81
2017-01-17T03:40:17.373Z,27.71
2017-01-17T03:40:57.963Z,27.81
2017-01-17T03:41:38.540Z,27.61
2017-01-17T03:42:19.126Z,27.81
2017-01-17T03:42:59.733Z,27.81
2017-01-17T03:43:40.320Z,27.71
2017-01-17T03:44:20.929Z,27.61
2017-01-17T03:45:01.524Z,27.81
2017-01-17T03:45:42.110Z,27.71
2017-01-17T03:46:22.704Z,27.91
2017-01-17T03:47:03.278Z,27.91
2017-01-17T03:47:43.861Z,27.71
2017-01-17T03:48:24.451Z,27.91
2017-01-17T03:49:05.033Z,27.91
2017-01-17T03:49:45.617Z,27.71
2017-01-17T03:50:26.215Z,27.91
2017-01-17T03:51:06.820Z,27.81
2017-01-17T03:51:47.410Z,27.81
2017-01-17T03:52:27.987Z,27.61
2017-01-17T03:53:08.569Z,27.61
2017-01-17T03:53:49.147Z,27.71
2017-01-17T03:54:29.726Z,27.61
2017-01-17T03:55:10.316Z,27.91
2017-01-17T03:55:50.901Z,27.61
2017-01-17T03:56:31.480Z,27.81
2017-01-17T03:57:12.076Z,27.71
2017-01-17T03:57:52.647Z,27.61
2017-01-17T03:58:33.242Z,27.71
2017-01-17T03:59:14.491Z,27.71
2017-01-17T03:59:54.434Z,27.61
2017-01-17T04:00:35.044Z,27.61
2017-01-17T04:01:15.631Z,27.71
2017-01-17T04:01:56.230Z,27.91
2017-01-17T04:02:36.809Z,27.71
2017-01-17T04:03:17.392Z,27.81
2017-01-17T04:03:58.014Z,27.71
2017-01-17T04:04:38.598Z,27.71
2017-01-17T04:05:19.179Z,27.71
2017-01-17T04:05:59.765Z,27.71
2017-01-17T04:06:40.348Z,27.91
2017-01-17T04:07:20.926Z,27.91
2017-01-17T04:08:01.522Z,27.91
2017-01-17T04:08:42.110Z,27.81
2017-01-17T04:09:22.693Z,28
2017-01-17T04:10:03.274Z,27.61
2017-01-17T04:10:43.859Z,27.71
2017-01-17T04:11:24.441Z,27.81
2017-01-17T04:12:05.019Z,27.61
2017-01-17T04:12:45.615Z,27.81
2017-01-17T04:13:26.188Z,27.91
2017-01-17T04:14:06.785Z,28
2017-01-17T04:14:47.367Z,27.71
2017-01-17T04:15:27.950Z,27.81
2017-01-17T04:16:08.532Z,27.81
2017-01-17T04:16:49.117Z,27.81
2017-01-17T04:17:29.696Z,27.61
2017-01-17T04:18:10.269Z,27.91
2017-01-17T04:18:50.855Z,27.91
2017-01-17T04:19:31.450Z,27.71
2017-01-17T04:20:12.042Z,27.91
2017-01-17T04:20:52.627Z,27.81
2017-01-17T04:21:33.217Z,27.42
2017-01-17T04:22:13.795Z,27.23
2017-01-17T04:22:54.378Z,27.13
2017-01-17T04:23:34.964Z,27.13
2017-01-17T04:24:15.546Z,27.23
2017-01-17T04:24:56.120Z,27.31
2017-01-17T04:25:36.702Z,27.33
2017-01-17T04:26:17.285Z,27.23
2017-01-17T04:26:57.871Z,27.42
2017-01-17T04:27:38.463Z,27.42
2017-01-17T04:28:19.062Z,27.33
2017-01-17T04:28:59.640Z,27.4
2017-01-17T04:29:40.221Z,27.4
2017-01-17T04:30:20.792Z,27.23
2017-01-17T04:31:01.384Z,27.31
2017-01-17T04:31:41.975Z,27.22
2017-01-17T04:32:22.576Z,27.4
2017-01-17T04:33:03.181Z,27.4
2017-01-17T04:33:43.787Z,27.4
2017-01-17T04:34:24.373Z,27.51
2017-01-17T04:35:04.963Z,27.4
2017-01-17T04:35:45.543Z,27.31
2017-01-17T04:36:26.122Z,27.31
2017-01-17T04:37:06.699Z,27.42
2017-01-17T04:37:47.289Z,27.42
2017-01-17T04:38:27.876Z,27.03
2017-01-17T04:39:08.457Z,26.92
2017-01-17T04:39:49.043Z,26.92
2017-01-17T04:40:29.640Z,26.92
2017-01-17T04:41:10.218Z,27.02
2017-01-17T04:41:50.843Z,27.22
2017-01-17T04:42:31.424Z,27.12
2017-01-17T04:43:12.006Z,27.22
2017-01-17T04:43:52.604Z,27.22
2017-01-17T04:44:33.194Z,27.23
2017-01-17T04:45:13.777Z,27.22
2017-01-17T04:45:54.369Z,27.23
2017-01-17T04:46:34.965Z,27.03
2017-01-17T04:47:15.536Z,27.22
2017-01-17T04:47:56.120Z,27.12
2017-01-17T04:48:36.710Z,26.92
2017-01-17T04:49:17.286Z,27.03
2017-01-17T04:49:57.868Z,27.22
2017-01-17T04:50:38.454Z,27.13
2017-01-17T04:51:19.057Z,27.13
2017-01-17T04:51:59.647Z,27.12
2017-01-17T04:52:40.244Z,26.84
2017-01-17T04:53:20.830Z,26.92
2017-01-17T04:54:01.419Z,26.93
2017-01-17T04:54:42.030Z,26.92
2017-01-17T04:55:22.632Z,26.82
2017-01-17T04:56:03.237Z,26.92
2017-01-17T04:56:43.828Z,27.02
2017-01-17T04:57:24.399Z,26.93
2017-01-17T04:58:04.983Z,27.02
2017-01-17T04:58:45.566Z,26.73
2017-01-17T04:59:26.157Z,26.65
2017-01-17T05:00:06.727Z,26.73
2017-01-17T05:00:47.302Z,26.73
2017-01-17T05:01:27.910Z,26.64
2017-01-17T05:02:08.502Z,26.64
2017-01-17T05:02:49.093Z,26.64
2017-01-17T05:03:29.669Z,26.75
2017-01-17T05:04:10.252Z,26.54
2017-01-17T05:04:50.861Z,27.03
2017-01-17T05:05:31.472Z,27.02
2017-01-17T05:06:12.041Z,26.75
2017-01-17T05:06:52.627Z,27.02
2017-01-17T05:07:33.226Z,26.54
2017-01-17T05:08:13.823Z,26.75
2017-01-17T05:08:54.418Z,26.64
2017-01-17T05:09:34.993Z,26.73
2017-01-17T05:10:15.569Z,26.82
2017-01-17T05:10:56.164Z,26.54
2017-01-17T05:11:36.751Z,26.25
2017-01-17T05:12:17.346Z,26.44
2017-01-17T05:12:57.941Z,26.54
2017-01-17T05:13:38.520Z,26.44
2017-01-17T05:14:19.098Z,26.44
2017-01-17T05:14:59.686Z,26.34
2017-01-17T05:15:40.265Z,26.54
2017-01-17T05:16:20.856Z,26.73
2017-01-17T05:17:01.441Z,26.73
2017-01-17T05:17:42.031Z,26.82
2017-01-17T05:18:22.615Z,26.44
2017-01-17T05:19:03.232Z,26.75
2017-01-17T05:19:43.812Z,26.73
2017-01-17T05:20:24.415Z,26.73
2017-01-17T05:21:05.004Z,26.54
2017-01-17T05:21:45.584Z,26.54
2017-01-17T05:22:26.172Z,26.73
2017-01-17T05:23:06.768Z,26.64
2017-01-17T05:23:47.355Z,26.54
2017-01-17T05:24:27.940Z,26.44
2017-01-17T05:25:08.527Z,26.34
2017-01-17T05:25:49.112Z,26.44
2017-01-17T05:26:29.711Z,26.44
2017-01-17T05:27:10.309Z,26.34
2017-01-17T05:27:50.896Z,26.54
2017-01-17T05:28:31.473Z,26.34
2017-01-17T05:29:12.057Z,26.54
2017-01-17T05:29:52.649Z,26.44
2017-01-17T05:30:33.233Z,26.34
2017-01-17T05:31:13.813Z,26.34
2017-01-17T05:31:54.396Z,26.34
2017-01-17T05:32:35.005Z,26.25
2017-01-17T05:33:15.597Z,26.34
2017-01-17T05:33:56.186Z,26.25
2017-01-17T05:34:36.766Z,26.34
2017-01-17T05:35:17.352Z,26.06
2017-01-17T05:35:57.938Z,26.34
2017-01-17T05:36:38.520Z,26.44
2017-01-17T05:37:19.110Z,26.44
2017-01-17T05:37:59.702Z,26.34
2017-01-17T05:38:40.282Z,26.44
2017-01-17T05:39:20.868Z,26.25
2017-01-17T05:40:01.444Z,26.15
2017-01-17T05:40:42.020Z,26.06
2017-01-17T05:41:22.603Z,26.15
2017-01-17T05:42:03.204Z,26.25
2017-01-17T05:42:43.786Z,26.25
2017-01-17T05:43:24.371Z,26.25
2017-01-17T05:44:04.947Z,26.15
2017-01-17T05:44:45.527Z,25.48
2017-01-17T05:45:26.105Z,25.76
2017-01-17T05:46:06.692Z,25.86
2017-01-17T05:46:47.278Z,25.86
2017-01-17T05:47:27.863Z,25.86
2017-01-17T05:48:08.445Z,25.76
2017-01-17T05:48:49.025Z,25.86
2017-01-17T05:49:29.610Z,25.76
2017-01-17T05:50:10.198Z,25.48
2017-01-17T05:50:50.777Z,25.67
2017-01-17T05:51:31.362Z,25.67
2017-01-17T05:52:11.958Z,25.67
2017-01-17T05:52:52.554Z,25.67
2017-01-17T05:53:33.146Z,25.67
2017-01-17T05:54:13.731Z,25.57
2017-01-17T05:54:54.327Z,25.76
2017-01-17T05:55:34.912Z,25.67
2017-01-17T05:56:15.501Z,25.67
2017-01-17T05:56:56.089Z,25.67
2017-01-17T05:57:36.670Z,25.57
2017-01-17T05:58:17.274Z,25.57
2017-01-17T05:58:57.859Z,25.48
2017-01-17T05:59:38.444Z,25.57
2017-01-17T06:00:19.032Z,25.48
2017-01-17T06:00:59.614Z,25.28
2017-01-17T06:01:40.205Z,25.28
2017-01-17T06:02:20.795Z,25.48
2017-01-17T06:03:01.385Z,25.38
2017-01-17T06:03:41.968Z,25.38
2017-01-17T06:04:22.558Z,25.48
2017-01-17T06:05:03.136Z,25.48
2017-01-17T06:05:43.755Z,25.48
2017-01-17T06:06:24.346Z,25.48
2017-01-17T06:07:04.926Z,25.57
2017-01-17T06:07:45.505Z,25.48
2017-01-17T06:08:26.084Z,25.76
2017-01-17T06:09:06.666Z,25.57
2017-01-17T06:09:47.248Z,25.57
2017-01-17T06:10:27.827Z,25.48
2017-01-17T06:11:08.418Z,25.48
2017-01-17T06:11:49.025Z,25.28
2017-01-17T06:12:29.611Z,25.48
2017-01-17T06:13:10.200Z,25.57
2017-01-17T06:13:50.784Z,25.38
2017-01-17T06:14:31.362Z,25.19
2017-01-17T06:15:11.951Z,25.48
2017-01-17T06:15:52.529Z,25.48
2017-01-17T06:16:33.129Z,25.38
2017-01-17T06:17:13.712Z,25.57
2017-01-17T06:17:54.289Z,25.48
2017-01-17T06:18:34.872Z,25.48
2017-01-17T06:19:15.462Z,25.48
2017-01-17T06:19:56.043Z,25.28
2017-01-17T06:20:36.622Z,25.76
2017-01-17T06:21:17.209Z,25.48
2017-01-17T06:21:57.805Z,25.48
2017-01-17T06:22:38.397Z,25.48
2017-01-17T06:23:18.984Z,25.09
2017-01-17T06:23:59.567Z,25.28
2017-01-17T06:24:40.147Z,25.38
2017-01-17T06:25:20.719Z,25.09
2017-01-17T06:26:01.305Z,25.09
2017-01-17T06:26:41.899Z,25.19
2017-01-17T06:27:22.495Z,25.09
2017-01-17T06:28:03.097Z,25.38
2017-01-17T06:28:43.679Z,25.19
2017-01-17T06:29:24.260Z,25.38
2017-01-17T06:30:04.840Z,25.09
2017-01-17T06:30:45.418Z,25.09
2017-01-17T06:31:26.000Z,25.19
2017-01-17T06:32:06.595Z,24.99
2017-01-17T06:32:47.186Z,25.09
2017-01-17T06:33:27.774Z,24.99
2017-01-17T06:34:08.361Z,25.09
2017-01-17T06:34:48.941Z,25.19
2017-01-17T06:35:29.527Z,25.19
2017-01-17T06:36:10.131Z,24.99
2017-01-17T06:36:50.721Z,25.09
2017-01-17T06:37:31.300Z,25.19
2017-01-17T06:38:11.891Z,25.19
2017-01-17T06:38:52.485Z,25.19
2017-01-17T06:39:33.074Z,25.19
2017-01-17T06:40:13.658Z,25.28
2017-01-17T06:40:54.243Z,24.71
2017-01-17T06:41:34.832Z,25.19
2017-01-17T06:42:15.426Z,24.9
2017-01-17T06:42:56.022Z,25.19
2017-01-17T06:43:36.596Z,25.28
2017-01-17T06:44:17.219Z,25.09
2017-01-17T06:44:57.799Z,25.09
2017-01-17T06:45:38.381Z,25.19
2017-01-17T06:46:18.967Z,24.9
2017-01-17T06:46:59.558Z,25.19
2017-01-17T06:47:40.149Z,24.99
2017-01-17T06:48:20.742Z,25.19
2017-01-17T06:49:01.318Z,25.09
2017-01-17T06:49:41.894Z,24.99
2017-01-17T06:50:22.497Z,24.99
2017-01-17T06:51:03.098Z,24.99
2017-01-17T06:51:43.681Z,24.99
2017-01-17T06:52:24.265Z,24.99
2017-01-17T06:53:04.853Z,25.09
2017-01-17T06:53:45.448Z,25.28
2017-01-17T06:54:26.024Z,24.9
2017-01-17T06:55:06.608Z,25.19
2017-01-17T06:55:47.191Z,25.09
2017-01-17T06:56:27.792Z,25.19
2017-01-17T06:57:08.400Z,25.28
2017-01-17T06:57:48.975Z,25.19
2017-01-17T06:58:29.564Z,25.09
2017-01-17T06:59:10.148Z,25.38
2017-01-17T06:59:50.728Z,25.19
2017-01-17T07:00:31.315Z,25.19
2017-01-17T07:01:11.897Z,25.09
2017-01-17T07:01:52.491Z,25.19
2017-01-17T07:02:33.073Z,24.9
2017-01-17T07:03:13.665Z,24.8
2017-01-17T07:03:54.248Z,24.51
2017-01-17T07:04:34.834Z,24.61
2017-01-17T07:05:15.422Z,24.61
2017-01-17T07:05:56.011Z,24.61
2017-01-17T07:06:36.587Z,24.61
2017-01-17T07:07:17.182Z,24.71
2017-01-17T07:07:57.773Z,24.71
2017-01-17T07:08:38.362Z,24.71
2017-01-17T07:09:18.944Z,24.22
2017-01-17T07:09:59.535Z,24.32
2017-01-17T07:10:40.131Z,24.41
2017-01-17T07:11:20.713Z,24.32
2017-01-17T07:12:01.295Z,24.32
2017-01-17T07:12:41.874Z,24.51
2017-01-17T07:13:22.464Z,24.03
2017-01-17T07:14:03.053Z,24.13
2017-01-17T07:14:43.656Z,23.74
2017-01-17T07:15:24.244Z,24.03
2017-01-17T07:16:04.821Z,23.83
2017-01-17T07:16:45.410Z,24.03
2017-01-17T07:17:26.007Z,23.83
2017-01-17T07:18:06.605Z,24.32
2017-01-17T07:18:47.243Z,24.61
2017-01-17T07:19:27.828Z,24.61
2017-01-17T07:20:08.412Z,23.93
2017-01-17T07:20:49.006Z,23.55
2017-01-17T07:21:29.588Z,23.55
2017-01-17T07:22:10.183Z,23.45
2017-01-17T07:22:50.784Z,23.65
2017-01-17T07:23:31.376Z,23.35
2017-01-17T07:24:11.960Z,22.69
2017-01-17T07:24:52.547Z,22.5
2017-01-17T07:25:33.126Z,22.78
2017-01-17T07:26:13.735Z,22.78
2017-01-17T07:26:54.336Z,22.78
2017-01-17T07:27:34.946Z,22.4
2017-01-17T07:28:15.565Z,22.02
2017-01-17T07:28:56.148Z,21.92
2017-01-17T07:29:36.753Z,21.82
2017-01-17T07:30:17.371Z,21.64
2017-01-17T07:30:57.961Z,21.64
2017-01-17T07:31:38.563Z,21.54
2017-01-17T07:32:19.169Z,21.64
2017-01-17T07:32:59.762Z,21.64
2017-01-17T07:33:40.355Z,21.35
2017-01-17T07:34:20.950Z,21.35
2017-01-17T07:35:01.535Z,21.35
2017-01-17T07:35:42.128Z,20.96
2017-01-17T07:36:22.726Z,20.96
2017-01-17T07:37:03.332Z,20.96
2017-01-17T07:37:43.931Z,21.06
2017-01-17T07:38:24.536Z,20.2
2017-01-17T07:39:05.168Z,20.59
2017-01-17T07:39:45.776Z,20.49
2017-01-17T07:40:26.383Z,20.39
2017-01-17T07:41:07.005Z,20.59
2017-01-17T07:41:47.592Z,20.39
2017-01-17T07:42:28.189Z,20.68
2017-01-17T07:43:08.796Z,20.49
2017-01-17T07:43:49.391Z,20.39
2017-01-17T07:44:29.985Z,20.2
2017-01-17T07:45:10.616Z,20.01
2017-01-17T07:45:51.303Z,20.29
2017-01-17T07:46:31.928Z,20.1
2017-01-17T07:47:12.560Z,20.01
2017-01-17T07:47:53.148Z,20.21
2017-01-17T07:48:33.748Z,19.34
2017-01-17T07:49:14.336Z,19.92
2017-01-17T07:49:54.923Z,19.34
2017-01-17T07:50:35.523Z,19.53
2017-01-17T07:51:16.143Z,19.63
2017-01-17T07:51:56.736Z,19.53
2017-01-17T07:52:37.331Z,19.63
2017-01-17T07:53:17.924Z,19.43
2017-01-17T07:53:58.547Z,19.24
2017-01-17T07:54:39.134Z,19.24
2017-01-17T07:55:19.732Z,19.24
2017-01-17T07:56:00.335Z,19.34
2017-01-17T07:56:40.939Z,19.73
2017-01-17T07:57:21.551Z,19.15
2017-01-17T07:58:02.149Z,19.15
2017-01-17T07:58:42.746Z,19.05
2017-01-17T07:59:23.347Z,18.95
2017-01-17T08:00:03.953Z,19.24
2017-01-17T08:00:44.572Z,18.95
2017-01-17T08:01:25.150Z,19.25
2017-01-17T08:02:05.760Z,19.25
2017-01-17T08:02:46.368Z,19.43
2017-01-17T08:03:26.971Z,19.24
2017-01-17T08:04:07.580Z,19.24
2017-01-17T08:04:48.159Z,19.34
2017-01-17T08:05:28.788Z,19.34
2017-01-17T08:06:09.380Z,19.05
2017-01-17T08:06:49.968Z,19.34
2017-01-17T08:07:30.560Z,19.06
2017-01-17T08:08:11.172Z,19.25
2017-01-17T08:08:51.770Z,19.35
2017-01-17T08:09:32.379Z,19.06
2017-01-17T08:10:12.968Z,18.96
2017-01-17T08:10:53.558Z,18.48
2017-01-17T08:11:34.140Z,18.48
2017-01-17T08:12:14.915Z,18.57
2017-01-17T08:12:56.083Z,18.67
2017-01-17T08:13:36.835Z,18.87
2017-01-17T08:14:17.613Z,18.77
2017-01-17T08:14:58.777Z,18.67
2017-01-17T08:15:39.730Z,18.19
2017-01-17T08:16:20.699Z,18.19
2017-01-17T08:17:02.038Z,17.99
2017-01-17T08:17:42.646Z,18.57
2017-01-17T08:18:23.228Z,18.67
2017-01-17T08:19:04.200Z,18.09
2017-01-17T08:19:45.311Z,18.67
2017-01-17T08:20:26.072Z,18.57
2017-01-17T08:21:06.924Z,18.77
2017-01-17T08:21:47.623Z,18.67
2017-01-17T08:22:28.212Z,18.57
2017-01-17T08:23:08.797Z,18.57
2017-01-17T08:23:49.394Z,18.67
2017-01-17T08:24:29.971Z,18.67
2017-01-17T08:25:10.559Z,17.8
2017-01-17T08:25:51.185Z,18.1
2017-01-17T08:26:31.804Z,18.09
2017-01-17T08:27:12.387Z,17.81
2017-01-17T08:27:52.972Z,17.61
2017-01-17T08:28:33.575Z,17.81
2017-01-17T08:29:14.163Z,17.51
2017-01-17T08:29:54.770Z,17.8
2017-01-17T08:30:35.381Z,17.42
2017-01-17T08:31:15.982Z,17.52
2017-01-17T08:31:56.624Z,17.8
2017-01-17T08:32:37.202Z,17.9
2017-01-17T08:33:17.804Z,17.9
2017-01-17T08:33:58.385Z,18
2017-01-17T08:34:39.005Z,18
2017-01-17T08:35:19.600Z,17.9
2017-01-17T08:36:00.212Z,18
2017-01-17T08:36:40.779Z,17.52
2017-01-17T08:37:21.371Z,18
2017-01-17T08:38:01.970Z,17.61
2017-01-17T08:38:42.563Z,17.9
2017-01-17T08:39:23.176Z,17.42
2017-01-17T08:40:03.760Z,17.71
2017-01-17T08:40:44.351Z,17.61
2017-01-17T08:41:24.939Z,17.32
2017-01-17T08:42:05.546Z,17.32
2017-01-17T08:42:46.159Z,17.32
2017-01-17T08:43:26.750Z,17.81
2017-01-17T08:44:07.334Z,17.61